Time;durP1;ratioP1;P1;durP2;ratioP2;P2;SDS_P1;SDS_P2;PMS_P1;PMS_P2;Temp;Humidity;BMP_temperature;BMP_pressure;BME280_temperature;BME280_humidity;BME280_pressure;Samples;Min_cycle;Max_cycle;Signal;HPM_P1;HPM_P2
2022/01/18 00:00:59;;;;;;;29.33;4.53;;;5.30;99.90;;;;;;5006653;28;20178;-84
2022/01/18 00:03:25;;;;;;;21.73;5.37;;;5.20;99.90;;;;;;5024123;28;20229;-84
2022/01/18 00:05:56;;;;;;;23.50;3.73;;;5.20;99.90;;;;;;5008837;28;20263;-83
2022/01/18 00:08:22;;;;;;;20.53;4.53;;;5.30;99.90;;;;;;5007120;28;20242;-83
2022/01/18 00:10:49;;;;;;;28.03;4.37;;;5.30;99.90;;;;;;5023351;28;20226;-84
2022/01/18 00:18:35;;;;;;;26.93;5.10;;;5.30;99.90;;;;;;5044579;28;20202;-82
2022/01/18 00:23:36;;;;;;;25.50;4.40;;;5.30;99.90;;;;;;5046219;28;20201;-89
2022/01/18 00:26:03;;;;;;;28.03;4.70;;;5.30;99.90;;;;;;5031726;28;20179;-80
2022/01/18 00:28:31;;;;;;;23.67;3.87;;;5.20;99.90;;;;;;5006975;28;20198;-82
2022/01/18 00:33:48;;;;;;;25.07;4.07;;;5.20;99.90;;;;;;5041518;28;20180;-84
2022/01/18 00:36:36;;;;;;;21.77;3.80;;;5.30;99.90;;;;;;5037667;28;20195;-84
2022/01/18 00:39:05;;;;;;;17.23;3.37;;;5.20;99.90;;;;;;5044152;28;20228;-88
2022/01/18 00:41:30;;;;;;;23.00;3.83;;;5.30;99.90;;;;;;5044148;28;20684;-83
2022/01/18 00:43:57;;;;;;;17.13;3.37;;;5.30;99.90;;;;;;5028612;28;20213;-85
2022/01/18 00:46:23;;;;;;;16.80;3.10;;;5.40;99.90;;;;;;5027028;28;20175;-83
2022/01/18 00:48:52;;;;;;;17.63;3.17;;;5.40;99.90;;;;;;5030281;28;20195;-84
2022/01/18 00:51:19;;;;;;;18.47;3.33;;;5.40;99.90;;;;;;5045313;28;20183;-83
2022/01/18 00:53:46;;;;;;;18.27;3.33;;;5.40;99.90;;;;;;5037349;28;20182;-86
2022/01/18 00:56:30;;;;;;;19.93;3.47;;;5.50;99.90;;;;;;5035575;28;20202;-84
2022/01/18 00:58:56;;;;;;;21.23;3.47;;;5.50;99.90;;;;;;5028714;28;20204;-85
2022/01/18 01:01:28;;;;;;;16.37;3.17;;;5.40;99.90;;;;;;5043381;28;20248;-84
2022/01/18 01:04:01;;;;;;;19.30;3.33;;;5.50;99.90;;;;;;5046170;28;20289;-85
2022/01/18 01:06:31;;;;;;;11.83;2.40;;;5.50;99.90;;;;;;5031599;28;20174;-85
2022/01/18 01:09:00;;;;;;;14.77;3.10;;;5.50;99.90;;;;;;5033734;28;20216;-85
2022/01/18 01:11:27;;;;;;;17.00;2.47;;;5.50;99.90;;;;;;5039700;28;20190;-84
2022/01/18 01:13:55;;;;;;;16.20;3.03;;;5.50;99.90;;;;;;5053553;28;20195;-80
2022/01/18 01:33:05;;;;;;;15.20;3.00;;;5.60;99.90;;;;;;5038766;28;20168;-87
2022/01/18 01:45:51;;;;;;;17.30;2.27;;;5.60;99.90;;;;;;5034689;28;20249;-85
2022/01/18 01:48:18;;;;;;;11.33;2.40;;;5.50;99.90;;;;;;5032450;28;20245;-85
2022/01/18 01:51:05;;;;;;;13.10;2.53;;;5.50;99.90;;;;;;5029982;28;20189;-86
2022/01/18 01:53:35;;;;;;;16.90;2.70;;;5.50;99.90;;;;;;5025967;28;20175;-85
2022/01/18 01:56:02;;;;;;;12.70;2.13;;;5.60;99.90;;;;;;5039227;28;20190;-84
2022/01/18 01:58:32;;;;;;;12.60;2.87;;;5.60;99.90;;;;;;5027984;28;20593;-85
2022/01/18 02:01:12;;;;;;;12.87;2.20;;;5.60;99.90;;;;;;5043731;28;20461;-85
2022/01/18 02:03:38;;;;;;;12.90;2.33;;;5.60;99.90;;;;;;5027209;28;20213;-86
2022/01/18 02:06:04;;;;;;;6.37;1.80;;;5.60;99.90;;;;;;5037146;28;20250;-85
2022/01/18 02:08:30;;;;;;;8.30;1.93;;;5.50;99.90;;;;;;5024374;28;20227;-85
2022/01/18 02:10:56;;;;;;;8.37;1.97;;;5.60;99.90;;;;;;5028705;28;20176;-85
2022/01/18 02:13:22;;;;;;;12.60;2.03;;;5.60;99.90;;;;;;5038472;28;20255;-84
2022/01/18 02:52:18;;;;;;;8.73;1.80;;;5.80;99.90;;;;;;5045284;28;20672;-81
2022/01/18 02:54:44;;;;;;;8.80;1.90;;;5.80;99.90;;;;;;5037610;28;20192;-82
2022/01/18 02:57:25;;;;;;;8.47;1.50;;;5.80;99.90;;;;;;5039258;28;20177;-84
2022/01/18 03:10:02;;;;;;;8.33;1.90;;;5.80;99.90;;;;;;5021800;28;20269;-81
2022/01/18 03:12:41;;;;;;;7.47;1.70;;;5.80;99.90;;;;;;5026022;28;20184;-81
2022/01/18 03:15:12;;;;;;;10.57;2.20;;;5.90;99.90;;;;;;5045805;28;20197;-82
2022/01/18 03:17:39;;;;;;;7.10;1.40;;;5.90;99.90;;;;;;5050189;28;20235;-82
2022/01/18 03:20:07;;;;;;;9.37;1.50;;;5.90;99.90;;;;;;5037589;28;20208;-81
2022/01/18 03:22:33;;;;;;;6.13;1.60;;;5.90;99.90;;;;;;5070912;28;20214;-83
2022/01/18 03:25:14;;;;;;;9.50;1.67;;;6.00;99.90;;;;;;5070063;28;20182;-82
2022/01/18 03:30:24;;;;;;;6.03;1.40;;;5.90;99.90;;;;;;5047992;28;20190;-84
2022/01/18 03:37:43;;;;;;;;;;;;;;;;;;;;;
2022/01/18 03:41:50;;;;;;;4.33;1.40;;;6.00;99.90;;;;;;4981230;28;20232;-81
2022/01/18 03:45:07;;;;;;;6.10;1.60;;;6.00;99.90;;;;;;4935102;29;20195;-82
2022/01/18 03:47:34;;;;;;;6.07;1.53;;;6.00;99.90;;;;;;4942539;28;20187;-83
2022/01/18 03:50:11;;;;;;;7.23;1.60;;;6.00;99.90;;;;;;5032376;22;20206;-81
2022/01/18 03:52:39;;;;;;;3.93;1.53;;;6.00;99.90;;;;;;5060728;28;20198;-82
2022/01/18 03:55:15;;;;;;;6.93;1.50;;;6.00;99.90;;;;;;5040417;28;20597;-82
2022/01/18 03:57:41;;;;;;;7.53;1.50;;;6.00;99.90;;;;;;5060816;28;20179;-81
2022/01/18 04:00:11;;;;;;;6.77;1.50;;;6.00;99.90;;;;;;5040120;28;20258;-81
2022/01/18 04:02:59;;;;;;;8.53;1.33;;;6.00;99.90;;;;;;5026447;28;20240;-80
2022/01/18 04:05:25;;;;;;;9.27;1.67;;;6.00;99.90;;;;;;5037907;28;20289;-80
2022/01/18 04:07:51;;;;;;;7.27;1.40;;;6.10;99.90;;;;;;5034616;28;20189;-82
2022/01/18 04:10:17;;;;;;;6.93;1.53;;;6.00;99.90;;;;;;5034885;28;20208;-80
2022/01/18 04:12:43;;;;;;;7.97;1.67;;;6.10;99.90;;;;;;5015958;28;20272;-80
2022/01/18 04:15:13;;;;;;;9.70;1.70;;;6.00;99.90;;;;;;5045270;28;20199;-80
2022/01/18 04:25:57;;;;;;;4.83;1.57;;;6.00;99.90;;;;;;5045867;28;20182;-80
2022/01/18 04:28:34;;;;;;;11.37;1.70;;;6.00;99.90;;;;;;5045105;28;20183;-80
2022/01/18 04:31:00;;;;;;;7.27;1.50;;;6.00;99.90;;;;;;5030810;28;20194;-80
2022/01/18 04:33:26;;;;;;;8.73;1.60;;;6.00;99.90;;;;;;5018308;28;20184;-81
2022/01/18 04:35:52;;;;;;;6.80;1.50;;;6.10;99.90;;;;;;5042142;28;20186;-80
2022/01/18 04:38:18;;;;;;;4.80;1.27;;;6.10;99.90;;;;;;5047516;28;20179;-80
2022/01/18 04:40:47;;;;;;;7.13;1.70;;;6.20;99.90;;;;;;5039350;28;20210;-81
2022/01/18 04:48:35;;;;;;;8.83;1.53;;;6.20;99.90;;;;;;5046049;28;20225;-81
2022/01/18 04:51:06;;;;;;;6.80;1.57;;;6.20;99.90;;;;;;5038994;28;20214;-81
2022/01/18 04:53:33;;;;;;;8.97;1.63;;;6.20;99.90;;;;;;5042809;28;20180;-81
2022/01/18 04:56:03;;;;;;;10.70;2.20;;;6.20;99.90;;;;;;5044005;28;20188;-80
2022/01/18 04:58:29;;;;;;;5.90;1.30;;;6.30;99.90;;;;;;5023976;28;20216;-81
2022/01/18 05:00:58;;;;;;;4.60;1.43;;;6.20;99.90;;;;;;5038209;28;20204;-81
2022/01/18 05:03:25;;;;;;;7.07;1.27;;;6.20;99.90;;;;;;5030769;28;20208;-80
2022/01/18 05:05:56;;;;;;;5.97;1.40;;;6.20;99.90;;;;;;5029477;28;20181;-81
2022/01/18 05:08:22;;;;;;;6.70;1.33;;;6.20;99.90;;;;;;5043717;28;20178;-82
2022/01/18 05:10:57;;;;;;;5.83;1.53;;;6.20;99.90;;;;;;5043602;28;20217;-81
2022/01/18 05:16:23;;;;;;;10.17;1.83;;;6.10;99.90;;;;;;5039715;28;20178;-81
2022/01/18 05:19:09;;;;;;;10.43;2.00;;;6.00;99.90;;;;;;5043086;28;20178;-82
2022/01/18 05:24:01;;;;;;;9.40;1.60;;;5.70;99.90;;;;;;5042161;28;20211;-82
2022/01/18 05:26:28;;;;;;;10.07;1.73;;;5.60;99.90;;;;;;5042265;28;20212;-81
2022/01/18 05:28:54;;;;;;;10.97;2.10;;;5.60;99.90;;;;;;5029556;28;20220;-81
2022/01/18 05:31:20;;;;;;;10.83;2.00;;;5.60;99.90;;;;;;5042057;28;20266;-80
2022/01/18 05:33:47;;;;;;;16.67;2.40;;;5.50;99.90;;;;;;5042972;28;20185;-81
2022/01/18 05:36:14;;;;;;;11.07;2.03;;;5.50;99.90;;;;;;5040861;28;20699;-81
2022/01/18 05:38:40;;;;;;;8.27;2.07;;;5.40;99.90;;;;;;5042964;28;20177;-81
2022/01/18 05:41:08;;;;;;;9.67;2.33;;;5.40;99.90;;;;;;5030258;28;20195;-81
2022/01/18 05:43:34;;;;;;;11.30;2.10;;;5.40;99.90;;;;;;5036252;28;20204;-80
2022/01/18 05:46:01;;;;;;;12.70;2.67;;;5.40;99.90;;;;;;5014397;28;20164;-83
2022/01/18 05:48:33;;;;;;;11.20;2.50;;;5.40;99.90;;;;;;5009707;28;20248;-85
2022/01/18 05:51:03;;;;;;;13.47;2.50;;;5.30;99.90;;;;;;4999383;28;20289;-81
2022/01/18 05:53:30;;;;;;;15.03;2.87;;;5.40;99.90;;;;;;5028976;28;20177;-80
2022/01/18 05:55:58;;;;;;;11.83;3.17;;;5.40;99.90;;;;;;5040112;28;20174;-80
2022/01/18 05:58:23;;;;;;;14.53;3.60;;;5.40;99.90;;;;;;5022940;28;20184;-80
2022/01/18 06:00:52;;;;;;;18.63;4.10;;;5.40;99.90;;;;;;5040512;28;20238;-81
2022/01/18 06:03:36;;;;;;;17.47;3.83;;;5.40;99.90;;;;;;5043378;28;20213;-82
2022/01/18 06:09:13;;;;;;;16.57;4.00;;;5.50;99.90;;;;;;5045106;28;20162;-81
2022/01/18 06:11:40;;;;;;;13.30;3.83;;;5.50;99.90;;;;;;5052147;28;20203;-80
2022/01/18 06:14:06;;;;;;;19.90;4.17;;;5.60;99.90;;;;;;5053819;28;20198;-80
2022/01/18 06:16:32;;;;;;;21.20;4.57;;;5.60;99.90;;;;;;5054613;28;20170;-81
2022/01/18 06:18:58;;;;;;;20.67;4.50;;;5.70;99.90;;;;;;5041086;28;20179;-81
2022/01/18 06:21:25;;;;;;;22.27;5.03;;;5.70;99.90;;;;;;5047033;28;20236;-81
2022/01/18 06:23:51;;;;;;;18.63;4.33;;;5.60;99.90;;;;;;5050181;28;20204;-81
2022/01/18 06:26:17;;;;;;;18.17;5.27;;;5.70;99.90;;;;;;5024082;28;20193;-81
2022/01/18 06:28:43;;;;;;;19.97;4.63;;;5.80;99.90;;;;;;5050998;28;20206;-81
2022/01/18 06:31:09;;;;;;;24.60;4.67;;;5.80;99.90;;;;;;5047043;28;20189;-81
2022/01/18 06:33:43;;;;;;;17.53;4.97;;;5.90;99.90;;;;;;5040557;28;20192;-81
2022/01/18 06:36:24;;;;;;;24.23;5.87;;;5.80;99.90;;;;;;5042616;28;20188;-80
2022/01/18 06:38:50;;;;;;;21.73;5.50;;;5.70;99.90;;;;;;5028624;28;20270;-81
2022/01/18 06:41:44;;;;;;;23.30;5.23;;;5.70;99.90;;;;;;5037287;28;20200;-82
2022/01/18 06:44:22;;;;;;;32.50;6.30;;;5.80;99.90;;;;;;5040265;28;20197;-82
2022/01/18 06:46:54;;;;;;;24.57;6.50;;;5.80;99.90;;;;;;5024435;28;20236;-80
2022/01/18 06:49:20;;;;;;;23.70;6.27;;;5.80;99.90;;;;;;5025207;28;20579;-80
2022/01/18 06:51:46;;;;;;;32.10;6.53;;;5.80;99.90;;;;;;5022816;28;20662;-80
2022/01/18 06:54:16;;;;;;;23.47;6.77;;;5.80;99.90;;;;;;5034374;28;20183;-80
2022/01/18 06:56:56;;;;;;;33.03;6.17;;;5.80;99.90;;;;;;5056296;28;20180;-81
2022/01/18 07:00:02;;;;;;;29.27;6.30;;;5.80;99.90;;;;;;5023400;28;20206;-80
2022/01/18 07:02:48;;;;;;;;;;;;;;;;;;;;;
2022/01/18 07:06:07;;;;;;;34.10;6.43;;;5.70;99.90;;;;;;5020818;28;20596;-81
2022/01/18 07:15:59;;;;;;;;;;;;;;;;;;;;;
2022/01/18 07:18:47;;;;;;;28.17;6.00;;;5.80;99.90;;;;;;4969144;28;20270;-81
2022/01/18 07:21:51;;;;;;;;;;;;;;;;;;;;;
2022/01/18 07:24:40;;;;;;;29.70;6.13;;;5.90;99.90;;;;;;5038987;28;20275;-84
2022/01/18 07:27:18;;;;;;;25.33;6.07;;;5.90;99.90;;;;;;5016821;28;20242;-82
2022/01/18 07:30:31;;;;;;;26.77;5.83;;;5.90;99.90;;;;;;5013326;28;20210;-81
2022/01/18 07:33:22;;;;;;;30.23;5.87;;;5.90;99.90;;;;;;5029408;28;20193;-82
2022/01/18 07:35:55;;;;;;;24.17;5.83;;;5.90;99.90;;;;;;5028674;28;20189;-82
2022/01/18 07:38:21;;;;;;;28.17;5.70;;;5.90;99.90;;;;;;5016596;28;20185;-82
2022/01/18 07:40:53;;;;;;;33.50;5.07;;;5.90;99.90;;;;;;5008039;28;20207;-81
2022/01/18 07:43:51;;;;;;;32.83;6.00;;;5.90;99.90;;;;;;5018073;28;20211;-82
2022/01/18 07:46:43;;;;;;;24.03;5.47;;;5.90;99.90;;;;;;5027077;28;20196;-81
2022/01/18 07:49:15;;;;;;;25.63;5.77;;;5.90;99.90;;;;;;5018221;28;20220;-82
2022/01/18 07:54:59;;;;;;;25.23;5.83;;;6.00;99.90;;;;;;5011261;28;20210;-81
2022/01/18 07:57:27;;;;;;;29.37;5.77;;;6.00;99.90;;;;;;5000077;28;20180;-82
2022/01/18 07:59:58;;;;;;;33.63;5.57;;;6.00;99.90;;;;;;5000511;28;20151;-82
2022/01/18 08:02:37;;;;;;;27.80;5.70;;;6.00;99.90;;;;;;5002122;28;20205;-81
2022/01/18 08:05:45;;;;;;;33.30;5.97;;;6.10;99.90;;;;;;5015456;28;20199;-81
2022/01/18 08:08:05;;;;;;;25.73;5.13;;;6.10;99.90;;;;;;5036668;28;20208;-81
2022/01/18 08:11:03;;;;;;;29.93;5.17;;;6.20;99.90;;;;;;5025948;28;20350;-81
2022/01/18 08:13:48;;;;;;;21.57;5.20;;;6.30;99.90;;;;;;5003691;28;20308;-81
2022/01/18 08:19:02;;;;;;;24.93;5.27;;;6.40;99.90;;;;;;5021982;28;20189;-82
2022/01/18 08:21:31;;;;;;;29.70;5.87;;;6.40;99.90;;;;;;5017613;28;20244;-81
2022/01/18 08:24:22;;;;;;;31.10;5.13;;;6.40;99.90;;;;;;5014500;28;20483;-81
2022/01/18 08:27:20;;;;;;;29.50;5.67;;;6.40;99.90;;;;;;5005432;28;20278;-82
2022/01/18 08:29:58;;;;;;;27.07;5.27;;;6.40;99.90;;;;;;5018463;28;20179;-82
2022/01/18 08:32:40;;;;;;;25.63;5.33;;;6.40;99.90;;;;;;5026062;28;20245;-82
2022/01/18 08:35:12;;;;;;;31.00;5.63;;;6.40;99.90;;;;;;4995351;28;20192;-81
2022/01/18 08:38:22;;;;;;;;;;;;;;;;;;;;;
2022/01/18 08:42:24;;;;;;;25.93;5.47;;;6.30;99.90;;;;;;5022612;28;20204;-81
2022/01/18 08:46:04;;;;;;;23.53;4.97;;;6.50;99.90;;;;;;5024834;28;20214;-82
2022/01/18 09:25:27;;;;;;;28.07;4.43;;;6.80;99.90;;;;;;5064150;28;20227;-83
2022/01/18 09:28:14;;;;;;;31.77;5.27;;;6.80;99.90;;;;;;5043543;28;20280;-84
2022/01/18 09:30:56;;;;;;;20.27;3.53;;;6.80;99.90;;;;;;5052743;28;20187;-85
2022/01/18 09:33:26;;;;;;;27.13;5.43;;;6.80;99.90;;;;;;5019320;28;20196;-84
2022/01/18 09:35:52;;;;;;;23.30;4.77;;;6.70;99.90;;;;;;5001139;28;20190;-85
2022/01/18 09:38:18;;;;;;;23.30;5.03;;;6.70;99.90;;;;;;5026355;28;20215;-84
2022/01/18 09:40:45;;;;;;;26.80;5.00;;;6.70;99.90;;;;;;5042400;28;20175;-84
2022/01/18 09:43:12;;;;;;;26.97;4.83;;;6.70;99.90;;;;;;5025168;28;20258;-84
2022/01/18 09:45:46;;;;;;;23.83;4.90;;;6.70;99.90;;;;;;5025878;28;20191;-84
2022/01/18 09:48:13;;;;;;;22.17;4.10;;;6.80;99.90;;;;;;5016476;28;20568;-84
2022/01/18 09:50:42;;;;;;;25.33;4.63;;;6.80;99.90;;;;;;5020865;28;20174;-84
2022/01/18 09:53:10;;;;;;;25.10;4.90;;;6.80;99.90;;;;;;5006063;28;20205;-84
2022/01/18 09:55:41;;;;;;;21.60;4.50;;;6.80;99.90;;;;;;5023044;28;20208;-86
2022/01/18 09:58:11;;;;;;;24.70;4.37;;;6.80;99.90;;;;;;5008524;28;20186;-84
2022/01/18 10:00:56;;;;;;;19.87;3.80;;;6.80;99.90;;;;;;5027931;28;20177;-83
2022/01/18 10:03:50;;;;;;;28.03;4.37;;;7.00;99.90;;;;;;5006949;28;20323;-83
2022/01/18 10:06:51;;;;;;;23.60;4.40;;;7.00;99.90;;;;;;5010330;28;20190;-88
2022/01/18 10:09:19;;;;;;;21.43;4.57;;;7.00;99.90;;;;;;5025812;28;20168;-84
2022/01/18 10:12:45;;;;;;;;;;;;;;;;;;;;;
2022/01/18 10:15:17;;;;;;;19.00;3.90;;;7.10;99.90;;;;;;5057003;28;20181;-83
2022/01/18 10:17:43;;;;;;;22.23;4.30;;;7.20;99.90;;;;;;5024547;28;20247;-84
2022/01/18 10:20:18;;;;;;;33.83;14.17;;;7.20;99.90;;;;;;5027897;28;20192;-85
2022/01/18 10:22:49;;;;;;;21.33;4.83;;;7.30;99.90;;;;;;5037550;28;20216;-85
2022/01/18 10:25:16;;;;;;;27.73;6.30;;;7.30;99.90;;;;;;5027436;28;20178;-84
2022/01/18 10:27:43;;;;;;;21.23;4.03;;;7.40;99.90;;;;;;5020647;28;20193;-85
2022/01/18 10:30:15;;;;;;;21.43;3.77;;;7.50;99.90;;;;;;5023442;28;20249;-85
2022/01/18 10:32:43;;;;;;;16.10;3.47;;;7.50;99.90;;;;;;5028072;28;20166;-84
2022/01/18 10:35:11;;;;;;;22.87;4.10;;;7.50;99.90;;;;;;5009658;28;20194;-82
2022/01/18 10:37:49;;;;;;;20.27;3.30;;;7.50;99.90;;;;;;5031801;28;20206;-81
2022/01/18 10:40:19;;;;;;;22.50;3.40;;;7.40;99.90;;;;;;5020839;28;20193;-82
2022/01/18 10:43:02;;;;;;;17.27;3.40;;;7.50;99.90;;;;;;5020856;28;20198;-82
2022/01/18 10:46:13;;;;;;;15.23;3.60;;;7.50;99.90;;;;;;5005363;28;20271;-82
2022/01/18 10:48:48;;;;;;;11.53;3.60;;;7.50;99.90;;;;;;5012899;28;20184;-84
2022/01/18 10:51:35;;;;;;;19.87;3.90;;;7.60;99.90;;;;;;5021658;28;20274;-85
2022/01/18 10:54:05;;;;;;;17.37;3.50;;;7.50;99.90;;;;;;5036405;28;20208;-81
2022/01/18 10:56:43;;;;;;;21.67;3.37;;;7.50;99.90;;;;;;5014990;28;20189;-81
2022/01/18 10:59:25;;;;;;;15.63;3.67;;;7.60;99.90;;;;;;5012447;28;20177;-81
2022/01/18 11:02:17;;;;;;;15.77;3.03;;;7.60;99.90;;;;;;5014536;28;20183;-81
2022/01/18 11:04:50;;;;;;;16.67;3.20;;;7.40;99.90;;;;;;5020992;28;20198;-81
2022/01/18 11:10:55;;;;;;;19.13;3.50;;;7.50;99.90;;;;;;5060798;28;20173;-82
2022/01/18 11:13:24;;;;;;;20.93;3.70;;;7.50;99.90;;;;;;5023143;28;20197;-80
2022/01/18 11:16:01;;;;;;;20.87;3.97;;;7.50;99.90;;;;;;5022046;28;20181;-80
2022/01/18 11:18:31;;;;;;;12.67;3.17;;;7.50;99.90;;;;;;5012067;28;20174;-83
2022/01/18 11:21:01;;;;;;;16.57;3.40;;;7.50;99.90;;;;;;5010758;28;20184;-82
2022/01/18 11:23:27;;;;;;;14.87;3.10;;;7.40;99.90;;;;;;5029018;28;20205;-82
2022/01/18 11:25:58;;;;;;;20.63;4.63;;;7.40;99.90;;;;;;5023418;28;20185;-82
2022/01/18 11:28:39;;;;;;;19.60;3.33;;;7.40;99.90;;;;;;5024097;28;20170;-81
2022/01/18 11:31:10;;;;;;;18.03;3.50;;;7.50;99.90;;;;;;5019695;28;20220;-81
2022/01/18 11:33:41;;;;;;;15.47;2.90;;;7.60;99.90;;;;;;5042036;28;20207;-82
2022/01/18 11:36:14;;;;;;;14.03;3.30;;;7.60;99.90;;;;;;5017398;28;20185;-81
2022/01/18 11:39:00;;;;;;;17.00;3.77;;;7.60;99.90;;;;;;5028054;28;20162;-80
2022/01/18 11:41:35;;;;;;;10.93;2.63;;;7.50;99.90;;;;;;5040237;28;20553;-81
2022/01/18 11:44:21;;;;;;;10.07;2.60;;;7.50;99.90;;;;;;5019088;28;20220;-84
2022/01/18 11:46:52;;;;;;;12.03;2.60;;;7.40;99.90;;;;;;5029531;28;20241;-81
2022/01/18 11:49:24;;;;;;;15.70;3.10;;;7.50;99.90;;;;;;5017503;28;20178;-80
2022/01/18 11:51:55;;;;;;;10.43;2.60;;;7.40;99.90;;;;;;5013429;28;20189;-81
2022/01/18 11:54:30;;;;;;;14.40;2.77;;;7.40;99.90;;;;;;5019063;28;20212;-79
2022/01/18 11:56:56;;;;;;;13.03;2.20;;;7.40;99.90;;;;;;5031885;28;20199;-83
2022/01/18 11:59:26;;;;;;;9.53;2.17;;;7.20;99.90;;;;;;5029356;28;20185;-82
2022/01/18 12:01:57;;;;;;;8.17;2.30;;;7.30;99.90;;;;;;5014194;28;20279;-82
2022/01/18 12:04:46;;;;;;;12.00;2.40;;;7.40;99.90;;;;;;5043233;28;20208;-82
2022/01/18 12:07:40;;;;;;;8.27;3.07;;;7.40;99.90;;;;;;5021231;28;20170;-84
2022/01/18 12:10:27;;;;;;;11.53;2.87;;;7.40;99.90;;;;;;5024779;28;20177;-83
2022/01/18 12:12:54;;;;;;;12.07;2.80;;;7.40;99.90;;;;;;5028410;28;20190;-82
2022/01/18 12:15:23;;;;;;;13.37;2.57;;;7.30;99.90;;;;;;5026456;28;20178;-83
2022/01/18 12:18:01;;;;;;;9.07;2.70;;;7.30;99.90;;;;;;5023435;28;20195;-82
2022/01/18 12:20:37;;;;;;;8.07;2.37;;;7.30;99.90;;;;;;5027299;28;20181;-82
2022/01/18 12:23:49;;;;;;;9.47;2.10;;;7.20;99.90;;;;;;5023110;28;20631;-83
2022/01/18 12:26:40;;;;;;;6.43;2.20;;;7.20;99.90;;;;;;5013257;28;20193;-85
2022/01/18 12:34:38;;;;;;;10.93;2.63;;;7.20;99.90;;;;;;5041979;28;20291;-83
2022/01/18 12:37:24;;;;;;;6.67;2.57;;;7.10;99.90;;;;;;5028030;28;20183;-82
2022/01/18 12:45:19;;;;;;;8.63;3.17;;;7.10;99.90;;;;;;5035649;28;20182;-82
2022/01/18 12:48:02;;;;;;;11.37;2.40;;;7.10;99.90;;;;;;5009377;28;20320;-81
2022/01/18 12:50:50;;;;;;;6.43;2.27;;;7.10;99.90;;;;;;5018794;28;20200;-81
2022/01/18 12:53:27;;;;;;;6.17;2.40;;;7.10;99.90;;;;;;5039167;28;20201;-85
2022/01/18 12:56:14;;;;;;;8.30;2.63;;;7.00;99.90;;;;;;5021228;28;20169;-82
2022/01/18 12:58:48;;;;;;;9.63;2.53;;;6.80;99.90;;;;;;5026938;28;20193;-83
2022/01/18 13:01:21;;;;;;;9.53;2.67;;;6.80;99.90;;;;;;5015045;28;20260;-87
2022/01/18 13:03:53;;;;;;;5.93;3.17;;;6.80;99.90;;;;;;5028815;28;20209;-90
2022/01/18 13:06:25;;;;;;;8.27;3.40;;;6.90;99.90;;;;;;5038525;28;20187;-85
2022/01/18 13:09:28;;;;;;;6.63;2.27;;;6.90;99.90;;;;;;5045076;28;20178;-86
2022/01/18 13:12:01;;;;;;;5.27;2.30;;;6.90;99.90;;;;;;5049629;28;20235;-88
2022/01/18 13:14:29;;;;;;;5.27;1.97;;;6.90;99.90;;;;;;5043152;28;20201;-83
2022/01/18 13:25:21;;;;;;;6.47;2.40;;;6.80;99.90;;;;;;5038594;28;20173;-83
2022/01/18 13:27:52;;;;;;;6.43;2.50;;;6.80;99.90;;;;;;5017014;28;20177;-83
2022/01/18 13:30:28;;;;;;;9.20;2.83;;;6.80;99.90;;;;;;5019923;28;20176;-83
2022/01/18 13:32:59;;;;;;;5.73;2.63;;;6.80;99.90;;;;;;5029124;28;20229;-82
2022/01/18 13:35:29;;;;;;;5.20;2.73;;;6.90;99.90;;;;;;5018083;28;20192;-83
2022/01/18 13:38:14;;;;;;;10.67;3.43;;;6.90;99.90;;;;;;5029937;28;20180;-83
2022/01/18 13:40:42;;;;;;;4.73;2.83;;;7.00;99.90;;;;;;5013205;28;20180;-82
2022/01/18 13:43:26;;;;;;;5.87;3.10;;;6.90;99.90;;;;;;5027170;28;20201;-82
2022/01/18 13:45:57;;;;;;;6.20;2.83;;;6.90;99.90;;;;;;5027196;28;20173;-83
2022/01/18 13:48:34;;;;;;;4.73;2.47;;;6.90;99.90;;;;;;5027293;28;20185;-82
2022/01/18 13:51:19;;;;;;;6.67;2.80;;;6.80;99.90;;;;;;5025919;28;20188;-81
2022/01/18 13:53:58;;;;;;;5.47;2.63;;;6.80;99.90;;;;;;5021974;28;20194;-82
2022/01/18 13:56:26;;;;;;;5.47;2.37;;;6.80;99.90;;;;;;5014778;28;20248;-85
2022/01/18 13:59:08;;;;;;;5.23;2.87;;;6.70;99.90;;;;;;5007231;28;20185;-82
2022/01/18 14:01:41;;;;;;;6.33;3.60;;;6.70;99.90;;;;;;5024533;28;20175;-83
2022/01/18 14:04:23;;;;;;;5.77;3.37;;;6.70;99.90;;;;;;5017234;28;20211;-82
2022/01/18 14:06:57;;;;;;;6.50;3.30;;;6.70;99.90;;;;;;5023530;28;20177;-83
2022/01/18 14:09:40;;;;;;;8.00;3.83;;;6.70;99.90;;;;;;5026124;28;20191;-82
2022/01/18 14:12:17;;;;;;;6.07;3.40;;;6.70;99.90;;;;;;5023591;28;20174;-81
2022/01/18 14:14:50;;;;;;;7.60;3.90;;;6.60;99.90;;;;;;5047713;28;20196;-82
2022/01/18 14:17:16;;;;;;;7.97;3.50;;;6.70;99.90;;;;;;5028665;28;20181;-82
2022/01/18 14:19:48;;;;;;;5.80;3.73;;;6.70;99.90;;;;;;5023829;28;20181;-83
2022/01/18 14:22:21;;;;;;;4.33;3.63;;;6.60;99.90;;;;;;5023860;28;20204;-83
2022/01/18 14:24:50;;;;;;;6.53;3.77;;;6.60;99.90;;;;;;5034998;28;20196;-81
2022/01/18 14:27:46;;;;;;;6.83;3.97;;;6.60;99.90;;;;;;5011996;28;20195;-80
2022/01/18 14:30:25;;;;;;;7.70;4.40;;;6.60;99.90;;;;;;5009642;28;20206;-81
2022/01/18 14:32:56;;;;;;;6.47;4.67;;;6.50;99.90;;;;;;5009349;28;20203;-81
2022/01/18 14:35:38;;;;;;;5.73;4.53;;;6.50;99.90;;;;;;5029325;28;20528;-84
2022/01/18 14:41:59;;;;;;;6.57;4.77;;;6.60;99.90;;;;;;5030152;28;20176;-82
2022/01/18 14:47:25;;;;;;;7.73;4.73;;;6.60;99.90;;;;;;5029305;28;20181;-82
2022/01/18 14:50:04;;;;;;;4.50;4.10;;;6.50;99.90;;;;;;5017190;28;20188;-81
2022/01/18 14:52:31;;;;;;;11.27;4.83;;;6.50;99.90;;;;;;5033986;28;20185;-83
2022/01/18 14:54:57;;;;;;;8.53;4.43;;;6.40;99.90;;;;;;5034229;28;20252;-82
2022/01/18 14:57:24;;;;;;;7.70;4.07;;;6.30;99.90;;;;;;5050986;28;20180;-84
2022/01/18 14:59:54;;;;;;;7.27;4.57;;;6.30;99.90;;;;;;5025193;28;20174;-83
2022/01/18 15:02:20;;;;;;;6.53;5.10;;;6.20;99.90;;;;;;5033834;28;20180;-85
2022/01/18 15:04:45;;;;;;;5.70;4.43;;;6.20;99.90;;;;;;5027602;28;20251;-86
2022/01/18 15:07:12;;;;;;;6.37;4.47;;;6.20;99.90;;;;;;5024240;28;20185;-85
2022/01/18 15:09:43;;;;;;;5.40;3.70;;;6.10;99.90;;;;;;5019479;28;20270;-85
2022/01/18 15:12:09;;;;;;;4.53;3.60;;;6.10;99.90;;;;;;5047211;28;20177;-85
2022/01/18 15:14:36;;;;;;;5.60;3.17;;;6.20;99.90;;;;;;5022227;28;20278;-85
2022/01/18 15:17:03;;;;;;;6.63;3.87;;;6.20;99.90;;;;;;5045195;28;20184;-86
2022/01/18 15:19:29;;;;;;;6.47;3.97;;;6.10;99.90;;;;;;5027760;28;20203;-83
2022/01/18 15:21:54;;;;;;;5.70;3.50;;;6.10;99.90;;;;;;5036654;28;20212;-81
2022/01/18 15:24:21;;;;;;;6.27;3.40;;;6.10;99.90;;;;;;5051917;28;20231;-82
2022/01/18 15:26:49;;;;;;;4.80;3.50;;;6.10;99.90;;;;;;5042931;28;20210;-81
2022/01/18 15:29:16;;;;;;;5.80;3.03;;;6.10;99.90;;;;;;5033816;28;20264;-81
2022/01/18 15:31:41;;;;;;;5.03;3.57;;;6.10;99.90;;;;;;5032231;28;20196;-85
2022/01/18 15:34:07;;;;;;;6.43;3.93;;;6.10;99.90;;;;;;5023616;28;20193;-85
2022/01/18 15:36:34;;;;;;;6.23;4.57;;;6.20;99.90;;;;;;5030055;28;20230;-84
2022/01/18 15:39:00;;;;;;;8.37;4.23;;;6.20;99.90;;;;;;5041492;28;20175;-86
2022/01/18 15:41:26;;;;;;;8.77;4.70;;;6.30;99.90;;;;;;5046494;28;20252;-86
2022/01/18 15:43:52;;;;;;;6.27;4.40;;;6.20;99.90;;;;;;5040098;28;20305;-82
2022/01/18 15:46:17;;;;;;;5.07;4.20;;;6.20;99.90;;;;;;5045195;28;20160;-82
2022/01/18 15:48:43;;;;;;;6.03;4.70;;;6.20;99.90;;;;;;5038059;28;20264;-82
2022/01/18 15:51:10;;;;;;;7.00;4.63;;;6.20;99.90;;;;;;5059119;28;20198;-81
2022/01/18 15:53:36;;;;;;;7.10;5.50;;;6.20;99.90;;;;;;5035717;28;20216;-80
2022/01/18 15:56:02;;;;;;;8.60;5.57;;;6.30;99.90;;;;;;5057651;28;20184;-86
2022/01/18 15:58:28;;;;;;;10.10;5.57;;;6.30;99.90;;;;;;5035985;28;20186;-82
2022/01/18 16:00:54;;;;;;;9.47;5.50;;;6.20;99.90;;;;;;5043197;28;20169;-82
2022/01/18 16:03:19;;;;;;;7.57;5.20;;;6.30;99.90;;;;;;5028014;28;20215;-82
2022/01/18 16:05:46;;;;;;;7.10;4.73;;;6.30;99.90;;;;;;5035113;28;20169;-84
2022/01/18 16:08:23;;;;;;;8.50;5.53;;;6.20;99.90;;;;;;5039336;28;20179;-85
2022/01/18 16:10:51;;;;;;;7.40;5.80;;;6.30;99.90;;;;;;5059812;28;20250;-82
2022/01/18 16:13:17;;;;;;;9.93;6.17;;;6.30;99.90;;;;;;5043724;28;20191;-83
2022/01/18 16:15:43;;;;;;;11.07;6.03;;;6.20;99.90;;;;;;5054917;28;20166;-86
2022/01/18 16:18:10;;;;;;;7.33;5.20;;;6.10;99.90;;;;;;5027462;28;20240;-84
2022/01/18 16:20:36;;;;;;;7.60;5.53;;;6.10;99.90;;;;;;5060006;28;20241;-83
2022/01/18 16:23:01;;;;;;;10.27;5.80;;;6.20;99.90;;;;;;5040910;28;20208;-84
2022/01/18 16:25:27;;;;;;;7.77;5.20;;;6.20;99.90;;;;;;5039388;28;20258;-85
2022/01/18 16:27:56;;;;;;;11.02;7.45;;;6.20;99.90;;;;;;5042605;28;20489;-84
2022/01/18 16:30:28;;;;;;;11.40;9.20;;;6.30;99.90;;;;;;5046195;28;20420;-83
2022/01/18 16:33:34;;;;;;;10.83;8.00;;;6.30;99.90;;;;;;5040725;28;20216;-82
2022/01/18 16:36:10;;;;;;;12.17;5.73;;;6.30;99.90;;;;;;5049076;28;20231;-83
2022/01/18 16:38:42;;;;;;;9.93;5.63;;;6.30;99.90;;;;;;5031748;28;20238;-84
2022/01/18 16:41:21;;;;;;;8.53;5.10;;;6.30;99.90;;;;;;5032405;28;20184;-80
2022/01/18 16:43:51;;;;;;;8.80;4.23;;;6.30;99.90;;;;;;5023421;28;20213;-82
2022/01/18 16:46:21;;;;;;;7.03;5.10;;;6.30;99.90;;;;;;5023004;28;20200;-82
2022/01/18 16:48:47;;;;;;;7.57;4.30;;;6.30;99.90;;;;;;5026594;28;20180;-82